Lewis, Kansas
Current Conditions -  °F | °C
As of 12:55 AM on Friday 19 Dec 2014 (Local Time) from KPTT Reporting Station
Haze Haze  
Wind Chill: 32°   Ceiling: 1200
Heat Index: 32°   Visibility: 4mi
Dew Point: 32°   Wind: 3mph
Humidity: 100%   Direction: 70°ENE
Pressure: 30.22"   Gusts: NA
Location:  37.94°N, 99.25°W
Report Text: KPTT 190655Z AUTO 07003KT 4SM BR SCT005 OVC012 00/00 A3022 RMK AO2
Loading
Personal Weather Stations






























Interactive Weather Map New forecast layout! Learn more

10-Day Weather Forecast

Advertisements
Track Severe Weather on mobile